Dunbarton, NH

10:23 PM EST on February 27, 2017 (GMT -0500)
Baileys Corner | | Change Station

Elev 780 ft 43.11 °N, 71.58 °W | Updated 4 seconds ago

Clear
Clear
40.6 °F
Feels Like 41 °F
N
2.9
Wind Variable Wind from SSW
Gusts 4.9 mph

Today
High -- | Low -- °F
--% Chance of Precip.
Yesterday
High -- | Low -- °F
Precip. -- in
Pressure 30.32 in
Visibility 10.0 miles
Clouds Clear
Windchill 41 °F
Dew Point 4 °F
Humidity 21%
Rainfall 0.00 in
Snow Depth Not available.
6:25 AM 5:33 PM
Waxing Crescent, 3% visible
METAR KCON 280251Z AUTO 21005KT 10SM CLR 05/M07 A3031 RMK AO2 SLP265 T00501072 50008
Pressure 30.32 in
Visibility 10.0 miles
Clouds Clear
Windchill 41 °F
Dew Point 4 °F
Humidity 21%
Rainfall 0.00 in
Snow Depth Not available.
6:25 AM 5:33 PM
Waxing Crescent, 3% visible
METAR KCON 280251Z AUTO 21005KT 10SM CLR 05/M07 A3031 RMK AO2 SLP265 T00501072 50008

Get Your Daily Forecast Email!

Thanks for signing up!

Be on the lookout for a verification email in your inbox.

You'll start receiving the daily forecast at 8 AM.

×

10-Day Weather Forecast

Almanac

Astronomy

Feb. 27, 2017 Rise Set
Actual Time
Civil Twilight
Nautical Twilight
Astronomical Twilight
Moon
Length of Visible Light
Length of Day
Tomorrow will be .
, % of the Moon is Illuminated

Today's Extremes

State Highs State Lows

Community

WunderPhotos

Upload Photos

1,962,540 photos uploaded!

WunderBlog® & News

Nearby

Air Quality

  Air Quality AQ Index Pollutant
Not available.

Snow Depth

Station Depth Elevation

Earthquake Activity

City Distance Mag. Time & Date
Minimum magnitude displayed is 2.5.

Coastal Water Temperatures

Place Temperature

Stations

Nearby Weather Stations

Station Location Temp. Windchill Dew Point Humidity Wind Precip. Elev Updated Type
                   

Watches & Warnings

There are currently no watches in effect.